Time;durP1;ratioP1;P1;durP2;ratioP2;P2;SDS_P1;SDS_P2;PMS_P1;PMS_P2;Temp;Humidity;BMP_temperature;BMP_pressure;BME280_temperature;BME280_humidity;BME280_pressure;Samples;Min_cycle;Max_cycle;Signal;HPM_P1;HPM_P2
2022/12/20 00:01:35;;;;;;;30.45;20.83;;;2.50;99.90;;;;;;5033521;28;20693;-79
2022/12/20 00:04:22;;;;;;;37.17;24.33;;;2.60;99.90;;;;;;5032248;28;20214;-79
2022/12/20 00:07:08;;;;;;;33.08;22.75;;;2.60;99.90;;;;;;5030115;28;20283;-79
2022/12/20 00:09:53;;;;;;;40.65;25.20;;;2.70;99.90;;;;;;5028429;28;20249;-79
2022/12/20 00:12:39;;;;;;;35.10;25.90;;;2.70;99.90;;;;;;5033274;28;20224;-80
2022/12/20 00:15:24;;;;;;;38.30;25.33;;;2.80;99.90;;;;;;5030573;28;20209;-77
2022/12/20 00:18:10;;;;;;;35.95;25.77;;;2.70;99.90;;;;;;5024397;28;20296;-79
2022/12/20 00:20:59;;;;;;;36.58;26.05;;;2.80;99.90;;;;;;5031689;28;20201;-79
2022/12/20 00:23:45;;;;;;;34.88;23.83;;;2.60;99.90;;;;;;5027930;28;20268;-79
2022/12/20 00:26:33;;;;;;;28.23;19.48;;;2.60;99.90;;;;;;5029598;28;20264;-79
2022/12/20 00:29:18;;;;;;;27.88;17.48;;;2.60;99.90;;;;;;5027727;28;20299;-79
2022/12/20 00:32:04;;;;;;;29.67;20.65;;;2.60;99.90;;;;;;5030616;28;20233;-79
2022/12/20 00:34:50;;;;;;;31.48;22.35;;;2.60;99.90;;;;;;5027234;28;20201;-79
2022/12/20 00:37:37;;;;;;;33.97;24.27;;;2.60;99.90;;;;;;5024140;28;20976;-79
2022/12/20 00:40:22;;;;;;;28.67;21.60;;;2.70;99.90;;;;;;5024252;28;20205;-80
2022/12/20 00:43:08;;;;;;;33.90;21.95;;;2.80;99.90;;;;;;5032162;28;20241;-79
2022/12/20 00:45:54;;;;;;;36.25;24.50;;;2.80;99.90;;;;;;5027402;28;20702;-79
2022/12/20 00:48:40;;;;;;;35.72;25.58;;;2.80;99.90;;;;;;5030735;28;20939;-79
2022/12/20 00:51:28;;;;;;;33.50;24.25;;;2.80;99.90;;;;;;5034090;28;20225;-79
2022/12/20 00:54:15;;;;;;;35.72;24.30;;;2.80;99.90;;;;;;5035035;28;20213;-80
2022/12/20 00:57:00;;;;;;;27.95;21.17;;;2.80;99.90;;;;;;5029307;28;20603;-79
2022/12/20 00:59:46;;;;;;;25.88;19.88;;;2.80;99.90;;;;;;5037100;28;20209;-80
2022/12/20 01:02:32;;;;;;;27.52;19.55;;;2.80;99.90;;;;;;5038344;28;20296;-80
2022/12/20 01:05:17;;;;;;;27.08;18.25;;;2.80;99.90;;;;;;5037271;28;20586;-80
2022/12/20 01:08:10;;;;;;;24.65;19.00;;;2.90;99.90;;;;;;5036691;28;20276;-80
2022/12/20 01:11:01;;;;;;;25.73;16.40;;;2.90;99.90;;;;;;5036571;28;20209;-78
2022/12/20 01:13:48;;;;;;;27.08;19.88;;;2.90;99.90;;;;;;5036520;28;20213;-78
2022/12/20 01:16:37;;;;;;;26.75;17.23;;;3.00;99.90;;;;;;5033318;28;20226;-78
2022/12/20 01:19:22;;;;;;;24.83;16.80;;;2.90;99.90;;;;;;5031824;28;20201;-77
2022/12/20 01:22:08;;;;;;;23.65;14.77;;;2.90;99.90;;;;;;5035452;28;20591;-78
2022/12/20 01:24:53;;;;;;;19.77;14.02;;;2.90;99.90;;;;;;5017187;28;20226;-77
2022/12/20 01:27:40;;;;;;;21.05;14.02;;;2.90;99.90;;;;;;5027404;28;20198;-78
2022/12/20 01:30:26;;;;;;;21.60;14.63;;;2.90;99.90;;;;;;5034683;28;20285;-78
2022/12/20 01:33:12;;;;;;;21.90;14.55;;;2.90;99.90;;;;;;5037030;28;20593;-78
2022/12/20 01:35:59;;;;;;;16.85;12.40;;;2.90;99.90;;;;;;5031743;28;20201;-78
2022/12/20 01:38:46;;;;;;;19.48;13.75;;;2.80;99.90;;;;;;5027725;28;20324;-78
2022/12/20 01:41:32;;;;;;;15.93;12.75;;;2.80;99.90;;;;;;5034769;28;20830;-78
2022/12/20 01:44:55;;;;;;;19.73;12.60;;;2.80;99.90;;;;;;5033873;28;20288;-78
2022/12/20 01:47:40;;;;;;;18.23;13.43;;;2.80;99.90;;;;;;5027988;28;20205;-78
2022/12/20 01:50:27;;;;;;;22.52;14.43;;;2.90;99.90;;;;;;5034370;28;20209;-78
2022/12/20 01:53:13;;;;;;;20.65;16.63;;;2.90;99.90;;;;;;5031076;22;20238;-76
2022/12/20 01:56:01;;;;;;;17.67;14.93;;;2.90;99.90;;;;;;5010339;28;20214;-74
2022/12/20 01:58:51;;;;;;;19.98;14.02;;;2.90;99.90;;;;;;5009842;28;20277;-75
2022/12/20 02:01:39;;;;;;;18.17;13.05;;;3.00;99.90;;;;;;5009030;28;20202;-74
2022/12/20 02:04:25;;;;;;;23.05;14.63;;;2.90;99.90;;;;;;4988674;28;20339;-76
2022/12/20 02:07:12;;;;;;;19.50;12.35;;;2.90;99.90;;;;;;4989043;28;20210;-75
2022/12/20 02:09:58;;;;;;;17.02;11.98;;;2.90;99.90;;;;;;4993215;28;20688;-76
2022/12/20 02:12:46;;;;;;;17.92;10.80;;;2.90;99.90;;;;;;4994738;28;20230;-77
2022/12/20 02:15:41;;;;;;;14.20;9.70;;;2.80;99.90;;;;;;4990882;28;20281;-77
2022/12/20 02:18:32;;;;;;;13.20;9.50;;;2.70;99.90;;;;;;4991866;28;20211;-76
2022/12/20 02:21:27;;;;;;;11.10;9.43;;;2.80;99.90;;;;;;4993080;28;20211;-77
2022/12/20 02:25:09;;;;;;;13.52;8.73;;;2.80;99.90;;;;;;4989963;28;20686;-76
2022/12/20 02:28:01;;;;;;;12.05;9.30;;;2.90;99.90;;;;;;4913844;29;20215;-76
2022/12/20 02:30:53;;;;;;;11.25;8.60;;;2.90;99.90;;;;;;4914584;29;20237;-76
2022/12/20 02:33:41;;;;;;;12.93;8.88;;;2.80;99.90;;;;;;4992101;28;20218;-76
2022/12/20 02:36:27;;;;;;;11.70;8.55;;;2.90;99.90;;;;;;4991023;28;20259;-76
2022/12/20 02:39:15;;;;;;;19.65;10.95;;;3.00;99.90;;;;;;4992957;28;20215;-76
2022/12/20 02:42:05;;;;;;;17.33;12.15;;;3.10;99.90;;;;;;4993861;28;20258;-75
2022/12/20 02:48:03;;;;;;;25.73;17.30;;;2.90;99.90;;;;;;4991782;28;20227;-76
2022/12/20 02:50:53;;;;;;;31.95;19.00;;;3.00;99.90;;;;;;4992349;28;20203;-75
2022/12/20 02:53:40;;;;;;;21.55;14.23;;;2.90;99.90;;;;;;4989583;28;20230;-76
2022/12/20 02:56:31;;;;;;;19.55;13.48;;;2.90;99.90;;;;;;4984885;28;20275;-76
2022/12/20 02:59:22;;;;;;;21.80;14.50;;;3.00;99.90;;;;;;4993739;28;20298;-76
2022/12/20 03:02:09;;;;;;;18.20;12.27;;;2.90;99.90;;;;;;4992133;28;20718;-76
2022/12/20 03:04:58;;;;;;;18.50;11.45;;;2.90;99.90;;;;;;4981228;28;20207;-76
2022/12/20 03:07:43;;;;;;;16.67;11.60;;;2.90;99.90;;;;;;4986500;28;20207;-76
2022/12/20 03:10:29;;;;;;;15.20;10.90;;;3.00;99.90;;;;;;4993331;28;20216;-75
2022/12/20 03:13:15;;;;;;;17.23;13.25;;;3.00;99.90;;;;;;4991687;28;20226;-76
2022/12/20 03:16:00;;;;;;;17.30;12.15;;;3.10;99.90;;;;;;4989943;28;20215;-76
2022/12/20 03:18:46;;;;;;;17.45;14.45;;;3.10;99.90;;;;;;4990494;28;20572;-76
2022/12/20 03:21:33;;;;;;;16.55;12.10;;;3.00;99.90;;;;;;4992162;28;20585;-76
2022/12/20 03:24:19;;;;;;;17.17;11.20;;;3.00;99.90;;;;;;4997227;28;20743;-76
2022/12/20 03:27:05;;;;;;;17.52;12.43;;;3.10;99.90;;;;;;4989614;28;20286;-76
2022/12/20 03:29:50;;;;;;;21.35;12.85;;;3.10;99.90;;;;;;4990324;28;20207;-76
2022/12/20 03:32:36;;;;;;;13.20;9.25;;;3.00;99.90;;;;;;4990844;28;20315;-76
2022/12/20 03:35:21;;;;;;;13.75;10.27;;;3.10;99.90;;;;;;4977039;28;20360;-76
2022/12/20 03:38:08;;;;;;;17.67;11.80;;;3.00;99.90;;;;;;4991080;28;20231;-76
2022/12/20 03:40:54;;;;;;;20.75;13.93;;;3.10;99.90;;;;;;4992200;28;20289;-76
2022/12/20 03:43:39;;;;;;;17.55;12.43;;;3.10;99.90;;;;;;4978980;28;20270;-76
2022/12/20 03:46:26;;;;;;;21.83;11.95;;;3.10;99.90;;;;;;4988266;28;20585;-76
2022/12/20 03:49:12;;;;;;;21.58;12.25;;;3.10;99.90;;;;;;4990770;28;20566;-76
2022/12/20 03:51:57;;;;;;;21.27;13.48;;;3.10;99.90;;;;;;4991229;28;20210;-76
2022/12/20 03:54:44;;;;;;;18.67;13.63;;;3.00;99.90;;;;;;4988727;28;20206;-76
2022/12/20 03:57:30;;;;;;;17.83;12.90;;;3.10;99.90;;;;;;4991379;28;20278;-76
2022/12/20 04:00:17;;;;;;;15.85;13.18;;;3.10;99.90;;;;;;4992314;28;20202;-76
2022/12/20 04:03:02;;;;;;;18.63;12.65;;;3.10;99.90;;;;;;4989915;28;20230;-76
2022/12/20 04:05:48;;;;;;;16.17;11.55;;;3.10;99.90;;;;;;4984171;28;20367;-76
2022/12/20 04:08:34;;;;;;;15.32;11.48;;;3.10;99.90;;;;;;4986308;28;20198;-75
2022/12/20 04:11:21;;;;;;;15.15;11.45;;;3.10;99.90;;;;;;4992002;28;20210;-76
2022/12/20 04:14:07;;;;;;;16.55;11.60;;;3.00;99.90;;;;;;4988690;28;20206;-76
2022/12/20 04:16:53;;;;;;;16.75;11.13;;;3.10;99.90;;;;;;4990967;28;20210;-75
2022/12/20 04:19:38;;;;;;;21.17;16.15;;;3.10;99.90;;;;;;4990652;28;20202;-76
2022/12/20 04:22:24;;;;;;;24.13;14.82;;;3.10;99.90;;;;;;4987399;28;20226;-76
2022/12/20 04:25:10;;;;;;;17.95;12.60;;;3.20;99.90;;;;;;4983348;28;20211;-76
2022/12/20 04:27:57;;;;;;;18.42;13.43;;;3.20;99.90;;;;;;4989624;28;20784;-76
2022/12/20 04:30:43;;;;;;;17.15;13.77;;;3.20;99.90;;;;;;4985918;28;20214;-76
2022/12/20 04:33:29;;;;;;;25.30;16.23;;;3.20;99.90;;;;;;4988754;28;20225;-76
2022/12/20 04:36:15;;;;;;;20.88;15.35;;;3.20;99.90;;;;;;4989780;28;20198;-76
2022/12/20 04:39:00;;;;;;;18.92;14.30;;;3.20;99.90;;;;;;4992622;28;20277;-76
2022/12/20 04:41:46;;;;;;;22.35;13.13;;;3.20;99.90;;;;;;4992173;28;20250;-76
2022/12/20 04:44:33;;;;;;;20.38;13.25;;;3.20;99.90;;;;;;4987031;28;20254;-76
2022/12/20 04:47:18;;;;;;;17.70;12.43;;;3.10;99.90;;;;;;4990706;28;20218;-76
2022/12/20 04:50:05;;;;;;;28.27;17.50;;;3.10;99.90;;;;;;4987153;28;20209;-76
2022/12/20 04:55:56;;;;;;;18.10;13.57;;;3.20;99.90;;;;;;4974908;28;20211;-76
2022/12/20 04:58:42;;;;;;;17.02;12.48;;;3.30;99.90;;;;;;4991859;28;20533;-76
2022/12/20 05:01:29;;;;;;;14.65;11.52;;;3.30;99.90;;;;;;4989284;28;20214;-75
2022/12/20 05:04:15;;;;;;;18.40;10.77;;;3.30;99.90;;;;;;4985859;28;20203;-76
2022/12/20 05:07:01;;;;;;;17.13;12.35;;;3.20;99.90;;;;;;4990443;28;20303;-75
2022/12/20 05:09:46;;;;;;;18.30;13.10;;;3.20;99.90;;;;;;4987545;28;20272;-76
2022/12/20 05:12:32;;;;;;;19.25;12.48;;;3.30;99.90;;;;;;4990358;28;20234;-76
2022/12/20 05:15:18;;;;;;;15.65;13.07;;;3.30;99.90;;;;;;4987403;28;20214;-76
2022/12/20 05:18:05;;;;;;;15.93;11.27;;;3.30;99.90;;;;;;4989720;28;20207;-76
2022/12/20 05:26:16;;;;;;;18.05;13.40;;;3.20;99.90;;;;;;4991865;28;20202;-76
2022/12/20 05:26:59;;;;;;;16.17;12.13;;;3.30;99.90;;;;;;4988597;28;20604;-76
2022/12/20 05:29:45;;;;;;;15.38;11.93;;;3.30;99.90;;;;;;4984269;28;20293;-76
2022/12/20 05:32:31;;;;;;;16.90;11.70;;;3.30;99.90;;;;;;4990643;28;20219;-76
2022/12/20 05:35:18;;;;;;;16.15;10.43;;;3.30;99.90;;;;;;4993422;28;20683;-76
2022/12/20 05:38:03;;;;;;;16.63;12.00;;;3.30;99.90;;;;;;4994722;28;20330;-76
2022/12/20 05:40:50;;;;;;;19.25;14.60;;;3.30;99.90;;;;;;4987328;28;20215;-76
2022/12/20 05:43:35;;;;;;;17.95;14.15;;;3.40;99.90;;;;;;4991975;28;20713;-75
2022/12/20 05:46:21;;;;;;;22.17;15.00;;;3.40;99.90;;;;;;4986978;28;20222;-76
2022/12/20 05:49:07;;;;;;;15.13;10.93;;;3.40;99.90;;;;;;4993583;28;20255;-76
2022/12/20 05:51:54;;;;;;;17.75;10.80;;;3.40;99.90;;;;;;4994929;28;20207;-76
2022/12/20 05:54:39;;;;;;;12.05;9.00;;;3.40;99.90;;;;;;4990115;28;20679;-76
2022/12/20 05:57:25;;;;;;;10.35;7.97;;;3.40;99.90;;;;;;4994987;28;20207;-76
2022/12/20 06:00:12;;;;;;;16.58;11.25;;;3.40;99.90;;;;;;4991588;28;20311;-76
2022/12/20 06:02:57;;;;;;;17.40;12.40;;;3.40;99.90;;;;;;4992677;28;20219;-76
2022/12/20 06:05:43;;;;;;;19.02;13.38;;;3.40;99.90;;;;;;4986610;28;20337;-76
2022/12/20 06:08:30;;;;;;;15.50;10.70;;;3.50;99.90;;;;;;4991970;28;20221;-75
2022/12/20 06:11:16;;;;;;;14.75;10.50;;;3.50;99.90;;;;;;4991657;28;20262;-76
2022/12/20 06:14:01;;;;;;;13.70;10.10;;;3.50;99.90;;;;;;4987349;28;20730;-76
2022/12/20 06:16:48;;;;;;;11.13;8.80;;;3.40;99.90;;;;;;4994054;28;20558;-76
2022/12/20 06:19:33;;;;;;;10.85;7.72;;;3.40;99.90;;;;;;4993257;28;20207;-76
2022/12/20 06:22:19;;;;;;;12.63;9.45;;;3.40;99.90;;;;;;4994532;28;20223;-76
2022/12/20 06:25:08;;;;;;;12.02;8.73;;;3.50;99.90;;;;;;4990041;28;20636;-76
2022/12/20 06:27:53;;;;;;;21.38;11.23;;;3.50;99.90;;;;;;4988165;28;20226;-76
2022/12/20 06:30:39;;;;;;;13.20;9.10;;;3.50;99.90;;;;;;4992771;28;20302;-76
2022/12/20 06:33:25;;;;;;;11.82;8.82;;;3.30;99.90;;;;;;4991720;28;20238;-76
2022/12/20 06:36:11;;;;;;;12.45;8.57;;;3.30;99.90;;;;;;4989953;28;20283;-76
2022/12/20 06:38:57;;;;;;;12.05;9.27;;;3.40;99.90;;;;;;4986233;28;21369;-76
2022/12/20 06:41:44;;;;;;;14.27;8.57;;;3.50;99.90;;;;;;4993633;28;20206;-75
2022/12/20 06:44:29;;;;;;;15.15;10.35;;;3.50;99.90;;;;;;4990472;28;20307;-75
2022/12/20 06:47:15;;;;;;;11.35;9.70;;;3.50;99.90;;;;;;4992920;28;20230;-76
2022/12/20 06:50:00;;;;;;;12.82;10.30;;;3.50;99.90;;;;;;4992904;28;20227;-76
2022/12/20 06:52:46;;;;;;;15.15;9.98;;;3.50;99.90;;;;;;4988389;28;20229;-75
2022/12/20 06:55:32;;;;;;;12.15;7.78;;;3.50;99.90;;;;;;4990543;28;20203;-76
2022/12/20 06:58:20;;;;;;;7.68;6.60;;;3.50;99.90;;;;;;4993914;28;20695;-76
2022/12/20 07:01:06;;;;;;;7.38;6.30;;;3.50;99.90;;;;;;4990348;28;20207;-76
2022/12/20 07:03:51;;;;;;;11.43;8.07;;;3.60;99.90;;;;;;4977878;28;20251;-76
2022/12/20 07:06:37;;;;;;;10.77;8.30;;;3.60;99.90;;;;;;4998727;28;20215;-76
2022/12/20 07:09:23;;;;;;;9.77;6.68;;;3.60;99.90;;;;;;4992884;28;20215;-76
2022/12/20 07:12:09;;;;;;;9.95;7.50;;;3.60;99.90;;;;;;4990888;28;20249;-76
2022/12/20 07:14:56;;;;;;;14.50;7.70;;;3.60;99.90;;;;;;4993061;28;20214;-76
2022/12/20 07:17:42;;;;;;;9.55;7.38;;;3.60;99.90;;;;;;4991665;28;20262;-76
2022/12/20 07:20:28;;;;;;;10.05;7.18;;;3.60;99.90;;;;;;4989857;28;20210;-76
2022/12/20 07:23:13;;;;;;;12.70;8.25;;;3.60;99.90;;;;;;4989054;28;20227;-76
2022/12/20 07:26:02;;;;;;;10.60;7.65;;;3.70;99.90;;;;;;4992049;28;20203;-76
2022/12/20 07:28:48;;;;;;;12.02;9.35;;;3.60;99.90;;;;;;4988257;28;20574;-76
2022/12/20 07:31:35;;;;;;;13.65;10.40;;;3.60;99.90;;;;;;4991635;28;20600;-76
2022/12/20 07:34:21;;;;;;;13.35;10.80;;;3.70;99.90;;;;;;4989784;28;20207;-77
2022/12/20 07:37:07;;;;;;;20.55;15.18;;;3.70;99.90;;;;;;4992748;28;20731;-76
2022/12/20 07:39:53;;;;;;;26.17;21.90;;;3.70;99.90;;;;;;4991543;28;20203;-76
2022/12/20 07:42:40;;;;;;;24.10;17.10;;;3.70;99.90;;;;;;4986987;28;20267;-77
2022/12/20 07:45:25;;;;;;;20.88;14.45;;;3.70;99.90;;;;;;4988009;28;20704;-76
2022/12/20 07:48:12;;;;;;;32.03;21.23;;;3.70;99.90;;;;;;4994717;28;20581;-76
2022/12/20 07:51:01;;;;;;;20.85;16.25;;;3.70;99.90;;;;;;4992849;28;20214;-75
2022/12/20 07:53:50;;;;;;;44.95;32.42;;;3.70;99.90;;;;;;4988973;28;20362;-75
2022/12/20 07:56:40;;;;;;;41.67;29.38;;;3.80;99.90;;;;;;4990863;28;20207;-75
2022/12/20 07:59:29;;;;;;;36.60;25.73;;;3.70;99.90;;;;;;4991422;28;20222;-75
2022/12/20 08:02:18;;;;;;;26.40;19.05;;;3.80;99.90;;;;;;4989018;28;20589;-75
2022/12/20 08:05:07;;;;;;;20.23;16.52;;;3.90;99.90;;;;;;4992486;28;20577;-75
2022/12/20 08:07:56;;;;;;;35.40;23.83;;;3.80;99.90;;;;;;4992328;28;20261;-74
2022/12/20 08:10:42;;;;;;;60.97;33.53;;;3.80;99.90;;;;;;4992358;28;20293;-75
2022/12/20 08:13:27;;;;;;;55.28;30.38;;;3.80;99.90;;;;;;4978852;28;20227;-75
2022/12/20 08:16:13;;;;;;;50.95;25.95;;;3.90;99.90;;;;;;4980172;28;20732;-75
2022/12/20 08:18:59;;;;;;;39.55;23.58;;;3.90;99.90;;;;;;4991480;28;20222;-75
2022/12/20 08:21:46;;;;;;;49.08;25.95;;;3.80;99.90;;;;;;4980758;28;20328;-75
2022/12/20 08:24:33;;;;;;;33.75;20.90;;;3.80;99.90;;;;;;4990888;28;20207;-75
2022/12/20 08:27:19;;;;;;;40.28;25.52;;;3.90;99.90;;;;;;4988880;28;20222;-75
2022/12/20 08:30:07;;;;;;;30.42;19.42;;;3.80;99.90;;;;;;4989238;28;20214;-75
2022/12/20 08:32:52;;;;;;;32.55;18.38;;;3.80;99.90;;;;;;4987288;28;20226;-75
2022/12/20 08:35:38;;;;;;;24.40;18.02;;;3.90;99.90;;;;;;4990850;28;20302;-74
2022/12/20 08:38:26;;;;;;;19.95;13.25;;;4.00;99.90;;;;;;4992070;28;20289;-75
2022/12/20 08:41:13;;;;;;;27.40;15.43;;;3.90;99.90;;;;;;4989521;28;20265;-75
2022/12/20 08:43:58;;;;;;;27.00;17.00;;;3.90;99.90;;;;;;4985956;28;20305;-75
2022/12/20 08:46:44;;;;;;;24.40;16.60;;;4.00;99.90;;;;;;4985948;28;20793;-74
2022/12/20 08:49:30;;;;;;;22.95;16.65;;;4.10;99.90;;;;;;4988719;28;20207;-74
2022/12/20 08:52:15;;;;;;;24.08;16.20;;;4.20;99.90;;;;;;4987007;28;20234;-74
2022/12/20 08:55:02;;;;;;;24.13;15.07;;;4.20;99.90;;;;;;4986059;28;20206;-74
2022/12/20 08:57:48;;;;;;;22.55;15.48;;;4.30;99.90;;;;;;4986426;28;20277;-74
2022/12/20 09:00:33;;;;;;;19.02;14.35;;;4.40;99.90;;;;;;4988930;28;20234;-74
2022/12/20 09:03:19;;;;;;;20.92;12.90;;;4.50;99.90;;;;;;4988832;28;20721;-74
2022/12/20 09:06:07;;;;;;;17.27;12.30;;;4.50;99.90;;;;;;4984597;28;20556;-74
2022/12/20 09:08:54;;;;;;;18.55;12.63;;;4.70;99.90;;;;;;4990809;28;20243;-75
2022/12/20 09:11:41;;;;;;;17.40;12.82;;;4.80;99.90;;;;;;4994099;28;20330;-75
2022/12/20 09:14:26;;;;;;;19.65;13.30;;;4.80;99.90;;;;;;4986049;28;20440;-74
2022/12/20 09:17:12;;;;;;;24.17;15.65;;;4.90;99.90;;;;;;4988177;28;20203;-74
2022/12/20 09:19:57;;;;;;;19.45;14.90;;;5.00;99.90;;;;;;4994917;28;20206;-74
2022/12/20 09:22:43;;;;;;;33.30;18.00;;;4.90;99.90;;;;;;4991322;28;20808;-74
2022/12/20 09:25:29;;;;;;;29.35;17.73;;;5.00;99.90;;;;;;4990955;28;20346;-74
2022/12/20 09:28:16;;;;;;;22.75;15.95;;;5.00;99.90;;;;;;4991614;28;20223;-74
2022/12/20 09:31:03;;;;;;;23.73;16.38;;;5.20;99.90;;;;;;4987155;28;20265;-74
2022/12/20 09:33:50;;;;;;;23.08;14.95;;;5.20;99.90;;;;;;4994375;28;20299;-75
2022/12/20 09:36:35;;;;;;;24.58;16.60;;;5.30;99.90;;;;;;4998325;28;20250;-74
2022/12/20 09:39:21;;;;;;;16.15;12.95;;;5.30;99.90;;;;;;4989512;28;20905;-74
2022/12/20 09:42:08;;;;;;;16.73;12.63;;;5.40;99.90;;;;;;4986618;28;20646;-74
2022/12/20 09:45:03;;;;;;;18.13;12.10;;;5.50;99.90;;;;;;4993570;28;20202;-74
2022/12/20 09:47:49;;;;;;;17.13;12.27;;;5.60;99.90;;;;;;4991995;28;20269;-74
2022/12/20 09:50:46;;;;;;;17.80;12.30;;;5.60;99.90;;;;;;4988945;28;20206;-74
2022/12/20 09:53:40;;;;;;;19.15;12.15;;;5.70;99.90;;;;;;4993638;28;20366;-74
2022/12/20 09:56:30;;;;;;;17.60;11.77;;;5.70;99.90;;;;;;4992865;28;20211;-74
2022/12/20 09:59:19;;;;;;;17.77;11.32;;;5.80;99.90;;;;;;4993834;28;20243;-74
2022/12/20 10:02:11;;;;;;;20.85;11.40;;;5.90;99.90;;;;;;4986378;28;20719;-74
2022/12/20 10:04:57;;;;;;;16.65;11.95;;;5.90;99.90;;;;;;4990628;28;20210;-74
2022/12/20 10:07:50;;;;;;;17.83;11.82;;;6.00;99.90;;;;;;4983433;28;20234;-74
2022/12/20 10:10:47;;;;;;;18.45;12.45;;;6.10;99.90;;;;;;4990464;28;20211;-74
2022/12/20 10:13:48;;;;;;;19.52;14.75;;;6.10;99.90;;;;;;4986747;28;20692;-74
2022/12/20 10:16:42;;;;;;;25.80;17.95;;;6.10;99.90;;;;;;4990245;28;20199;-73
2022/12/20 10:19:49;;;;;;;35.47;22.80;;;6.20;99.90;;;;;;4987765;28;20593;-74
2022/12/20 10:22:41;;;;;;;35.70;23.38;;;6.20;99.90;;;;;;4993331;28;20708;-74
2022/12/20 10:25:31;;;;;;;40.75;25.08;;;6.20;99.90;;;;;;4977311;28;20215;-74
2022/12/20 10:28:17;;;;;;;26.30;19.85;;;6.30;99.90;;;;;;4991788;28;20226;-74
2022/12/20 10:31:05;;;;;;;27.40;19.85;;;6.40;99.90;;;;;;4983572;28;20211;-74
2022/12/20 10:33:50;;;;;;;28.13;20.33;;;6.50;99.90;;;;;;4974035;28;20326;-74
2022/12/20 10:36:38;;;;;;;27.23;20.05;;;6.50;99.90;;;;;;4973984;28;20207;-74
2022/12/20 10:39:41;;;;;;;26.88;17.85;;;6.50;99.90;;;;;;4993124;28;20203;-74
2022/12/20 10:42:35;;;;;;;33.10;20.47;;;6.60;99.90;;;;;;4991993;28;20428;-74
2022/12/20 10:45:32;;;;;;;25.70;20.92;;;6.70;99.90;;;;;;4992503;28;20426;-74
2022/12/20 10:48:29;;;;;;;23.73;16.80;;;7.30;99.90;;;;;;4993789;28;20244;-74
2022/12/20 10:51:16;;;;;;;22.23;17.70;;;7.70;99.90;;;;;;4981945;28;20263;-74
2022/12/20 10:54:20;;;;;;;29.27;17.00;;;7.90;99.90;;;;;;4974117;28;20282;-74
2022/12/20 10:57:18;;;;;;;22.30;15.52;;;8.10;99.90;;;;;;4974003;28;20427;-74
2022/12/20 11:00:07;;;;;;;25.23;16.03;;;8.10;99.90;;;;;;4978708;28;20330;-74
2022/12/20 11:03:05;;;;;;;22.55;14.73;;;8.10;99.90;;;;;;4990610;28;20438;-74
2022/12/20 11:05:57;;;;;;;25.60;15.75;;;8.00;99.90;;;;;;4993515;28;20202;-74
2022/12/20 11:08:43;;;;;;;25.08;16.50;;;7.90;99.90;;;;;;4994289;28;20219;-74
2022/12/20 11:11:30;;;;;;;23.48;16.33;;;7.80;99.90;;;;;;4986897;28;20223;-73
2022/12/20 11:14:15;;;;;;;21.98;16.52;;;7.70;99.90;;;;;;4992935;28;20218;-74
2022/12/20 11:17:13;;;;;;;20.65;15.45;;;7.70;99.90;;;;;;4993596;28;20695;-74
2022/12/20 11:20:12;;;;;;;15.53;9.10;;;7.70;99.90;;;;;;4989530;28;20202;-74
2022/12/20 11:23:08;;;;;;;12.55;6.55;;;7.60;99.90;;;;;;4973856;28;20455;-74
2022/12/20 11:26:14;;;;;;;7.15;5.00;;;7.60;99.90;;;;;;4973381;28;20215;-74
2022/12/20 11:29:14;;;;;;;8.47;5.00;;;7.50;99.90;;;;;;4973382;28;20231;-74
2022/12/20 11:32:08;;;;;;;9.77;4.10;;;7.50;99.90;;;;;;4992786;28;20416;-73
2022/12/20 11:35:03;;;;;;;8.70;3.95;;;7.50;99.90;;;;;;4992818;28;20936;-74
2022/12/20 11:37:59;;;;;;;10.27;5.68;;;7.50;99.90;;;;;;4992862;28;20285;-74
2022/12/20 11:40:51;;;;;;;8.07;4.78;;;7.50;99.90;;;;;;4982688;28;20565;-74
2022/12/20 11:43:56;;;;;;;6.60;4.35;;;7.40;99.90;;;;;;4992823;28;20716;-74
2022/12/20 11:47:03;;;;;;;9.57;7.00;;;7.40;99.90;;;;;;4992488;28;20202;-74
2022/12/20 11:50:16;;;;;;;8.50;6.20;;;7.40;99.90;;;;;;4990237;28;20990;-74
2022/12/20 11:53:07;;;;;;;7.03;5.30;;;7.50;99.90;;;;;;4987084;28;20574;-74
2022/12/20 11:55:58;;;;;;;8.20;5.87;;;7.50;99.90;;;;;;4992753;28;20203;-74
2022/12/20 11:58:51;;;;;;;5.80;4.20;;;7.60;99.90;;;;;;4990786;28;20449;-74
2022/12/20 12:01:43;;;;;;;6.40;4.40;;;7.60;99.90;;;;;;4972961;28;20801;-74
2022/12/20 12:04:33;;;;;;;6.30;3.70;;;7.60;99.90;;;;;;4972819;28;20211;-74
2022/12/20 12:07:22;;;;;;;5.22;3.53;;;7.60;99.90;;;;;;4973189;28;20812;-74
2022/12/20 12:10:16;;;;;;;4.23;3.20;;;7.70;99.90;;;;;;4983132;28;20328;-74
2022/12/20 12:13:11;;;;;;;7.85;3.10;;;8.00;99.90;;;;;;4972649;28;20463;-74
2022/12/20 12:16:02;;;;;;;2.67;2.28;;;8.20;99.90;;;;;;4984361;28;20688;-74
2022/12/20 12:18:47;;;;;;;3.00;2.53;;;8.20;99.90;;;;;;4992172;28;20271;-74
2022/12/20 12:21:40;;;;;;;6.35;2.67;;;8.20;99.90;;;;;;4973747;28;20590;-74
2022/12/20 12:24:30;;;;;;;5.18;2.67;;;8.20;99.90;;;;;;4971749;28;20698;-74
2022/12/20 12:27:23;;;;;;;3.23;2.30;;;8.20;99.90;;;;;;4972597;28;20211;-74
2022/12/20 12:30:13;;;;;;;5.70;2.67;;;8.30;99.90;;;;;;4974725;28;20542;-74
2022/12/20 12:33:03;;;;;;;5.00;2.65;;;8.30;99.90;;;;;;4972424;28;20230;-74
2022/12/20 12:36:07;;;;;;;3.55;2.35;;;8.30;99.90;;;;;;4984167;28;20211;-74
2022/12/20 12:39:19;;;;;;;4.15;2.80;;;8.40;99.90;;;;;;4983621;28;20677;-74
2022/12/20 12:42:33;;;;;;;7.07;2.70;;;8.30;99.90;;;;;;4983931;28;20249;-74
2022/12/20 12:45:25;;;;;;;5.03;3.37;;;8.40;99.90;;;;;;4985075;28;20215;-74
2022/12/20 12:48:17;;;;;;;4.75;3.03;;;8.40;99.90;;;;;;4992463;28;20458;-73
2022/12/20 12:51:04;;;;;;;5.80;2.53;;;8.40;99.90;;;;;;4994852;28;20214;-73
2022/12/20 12:53:52;;;;;;;5.20;3.03;;;8.40;99.90;;;;;;4986360;28;20277;-73
2022/12/20 12:56:42;;;;;;;3.77;2.43;;;8.60;99.90;;;;;;4993644;28;20446;-74
2022/12/20 12:59:50;;;;;;;4.80;2.70;;;8.70;99.90;;;;;;4986739;28;20517;-73
2022/12/20 13:02:50;;;;;;;5.13;3.58;;;8.80;99.90;;;;;;4994074;28;20465;-73
2022/12/20 13:05:36;;;;;;;5.93;3.50;;;8.90;99.90;;;;;;4988617;28;20939;-73
2022/12/20 13:08:47;;;;;;;11.13;5.47;;;9.00;99.90;;;;;;4987290;28;21149;-72
2022/12/20 13:11:35;;;;;;;6.60;3.80;;;9.00;99.90;;;;;;4995488;28;20445;-72
2022/12/20 13:14:50;;;;;;;5.07;3.97;;;9.00;99.90;;;;;;4994085;28;20578;-72
2022/12/20 13:17:49;;;;;;;4.23;2.77;;;9.10;99.90;;;;;;4986582;28;20449;-72
2022/12/20 13:20:36;;;;;;;5.53;3.20;;;9.10;99.90;;;;;;4987159;28;22175;-72
2022/12/20 13:23:22;;;;;;;6.00;4.00;;;9.10;99.90;;;;;;4989140;28;21014;-71
2022/12/20 13:26:49;;;;;;;7.43;3.90;;;9.00;99.90;;;;;;4992155;28;20436;-72
2022/12/20 13:29:36;;;;;;;7.57;4.90;;;9.00;99.90;;;;;;4986591;28;20478;-70
2022/12/20 13:33:03;;;;;;;6.47;4.30;;;9.00;99.90;;;;;;4994159;28;20473;-71
2022/12/20 13:35:58;;;;;;;6.80;3.40;;;9.00;99.90;;;;;;4987370;28;20445;-71
2022/12/20 13:38:53;;;;;;;6.03;3.13;;;9.00;99.90;;;;;;4981798;28;20448;-72
2022/12/20 13:41:44;;;;;;;5.00;2.60;;;9.00;99.90;;;;;;4983210;28;20585;-72
2022/12/20 13:44:36;;;;;;;6.23;3.10;;;8.90;99.90;;;;;;4991038;28;20612;-72
2022/12/20 13:47:42;;;;;;;7.30;2.53;;;8.90;99.90;;;;;;4974745;28;20613;-72
2022/12/20 13:50:34;;;;;;;4.57;2.70;;;8.90;99.90;;;;;;4983161;28;20474;-71
2022/12/20 13:53:22;;;;;;;5.93;3.30;;;8.90;99.90;;;;;;4982754;28;20494;-73
2022/12/20 13:56:40;;;;;;;7.23;4.47;;;8.80;99.90;;;;;;4987075;28;20456;-75
2022/12/20 13:59:28;;;;;;;5.17;3.97;;;8.80;99.90;;;;;;4987237;28;20454;-76
2022/12/20 14:02:21;;;;;;;4.90;2.73;;;8.80;99.90;;;;;;4992402;28;20470;-74
2022/12/20 14:05:14;;;;;;;6.97;2.60;;;8.80;99.90;;;;;;4984391;28;20450;-73
2022/12/20 14:08:05;;;;;;;3.90;2.30;;;8.70;99.90;;;;;;4986260;28;20505;-73
2022/12/20 14:10:53;;;;;;;6.57;2.43;;;8.70;99.90;;;;;;4989578;28;20518;-72
2022/12/20 14:13:39;;;;;;;3.57;2.27;;;8.60;99.90;;;;;;4984231;28;20482;-72
2022/12/20 14:16:26;;;;;;;4.80;2.90;;;8.60;99.90;;;;;;4986997;28;20446;-73
2022/12/20 14:19:14;;;;;;;4.97;2.13;;;8.50;99.90;;;;;;4989190;28;20523;-71
2022/12/20 14:22:00;;;;;;;5.37;2.83;;;8.50;99.90;;;;;;4987019;28;20959;-72
2022/12/20 14:24:47;;;;;;;4.63;3.10;;;8.40;99.90;;;;;;4990998;28;20534;-72
2022/12/20 14:27:37;;;;;;;5.23;2.40;;;8.40;99.90;;;;;;4986676;28;20447;-73
2022/12/20 14:30:31;;;;;;;4.13;3.00;;;8.40;99.90;;;;;;4990588;28;21007;-73
2022/12/20 14:33:23;;;;;;;5.00;2.90;;;8.30;99.90;;;;;;4992067;28;20474;-73
2022/12/20 14:36:10;;;;;;;4.13;2.67;;;8.20;99.90;;;;;;4979799;28;20463;-72
2022/12/20 14:38:56;;;;;;;3.60;2.65;;;8.20;99.90;;;;;;4983016;28;20499;-72
2022/12/20 14:41:45;;;;;;;7.73;3.00;;;8.30;99.90;;;;;;4989152;28;20286;-73
2022/12/20 14:44:31;;;;;;;3.67;2.60;;;8.20;99.90;;;;;;4988943;28;20960;-73
2022/12/20 14:47:23;;;;;;;3.38;2.90;;;8.20;99.90;;;;;;4984614;28;20812;-74